createdAt,value
2019-05-21T00:00:57.997Z,15.20
2019-05-21T00:03:28.294Z,15.20
2019-05-21T00:05:58.628Z,15.10
2019-05-21T00:08:28.938Z,15.10
2019-05-21T00:10:59.245Z,15.10
2019-05-21T00:13:29.523Z,15.00
2019-05-21T00:15:59.857Z,14.90
2019-05-21T00:18:30.163Z,15.00
2019-05-21T00:21:00.507Z,14.90
2019-05-21T00:23:30.800Z,15.00
2019-05-21T00:26:01.181Z,15.10
2019-05-21T00:28:39.240Z,15.00
2019-05-21T00:31:45.160Z,15.10
2019-05-21T00:34:51.124Z,15.10
2019-05-21T00:37:59.466Z,15.00
2019-05-21T00:41:05.717Z,15.10
2019-05-21T00:43:51.205Z,15.10
2019-05-21T00:46:21.508Z,15.00
2019-05-21T00:48:51.826Z,15.00
2019-05-21T00:51:22.157Z,15.00
2019-05-21T00:53:53.609Z,15.00
2019-05-21T00:56:23.930Z,15.00
2019-05-21T00:58:54.198Z,15.00
2019-05-21T01:01:35.899Z,14.90
2019-05-21T01:07:39.358Z,14.70
2019-05-21T01:10:09.915Z,14.80
2019-05-21T01:12:40.311Z,14.90
2019-05-21T01:15:10.808Z,14.80
2019-05-21T01:17:42.628Z,14.70
2019-05-21T01:20:13.419Z,14.70
2019-05-21T01:22:44.047Z,14.70
2019-05-21T01:25:14.985Z,14.70
2019-05-21T01:27:45.703Z,14.80
2019-05-21T01:30:16.568Z,14.80
2019-05-21T01:32:47.314Z,14.80
2019-05-21T01:35:18.166Z,14.70
2019-05-21T01:37:48.632Z,14.70
2019-05-21T01:40:19.434Z,14.70
2019-05-21T01:42:49.924Z,14.70
2019-05-21T01:45:20.611Z,14.60
2019-05-21T01:47:51.207Z,14.70
2019-05-21T01:50:22.128Z,14.70
2019-05-21T01:52:52.759Z,14.70
2019-05-21T01:55:23.575Z,14.60
2019-05-21T01:57:54.226Z,14.70
2019-05-21T02:00:24.969Z,14.80
2019-05-21T02:02:55.413Z,14.70
2019-05-21T02:05:32.956Z,14.70
2019-05-21T02:07:57.720Z,14.70
2019-05-21T02:10:28.405Z,14.70
2019-05-21T02:13:02.488Z,14.70
2019-05-21T02:15:32.805Z,14.70
2019-05-21T02:18:03.077Z,14.70
2019-05-21T02:20:33.515Z,14.80
2019-05-21T02:23:03.857Z,14.90
2019-05-21T02:25:34.149Z,14.80
2019-05-21T02:28:04.484Z,14.60
2019-05-21T02:30:34.813Z,14.70
2019-05-21T02:33:05.124Z,14.50
2019-05-21T02:35:52.954Z,14.50
2019-05-21T02:38:07.831Z,14.30
2019-05-21T02:40:38.232Z,14.10
2019-05-21T02:43:08.539Z,14.00
2019-05-21T02:45:38.853Z,13.90
2019-05-21T02:48:09.159Z,13.80
2019-05-21T02:50:39.484Z,13.80
2019-05-21T02:53:09.809Z,13.80
2019-05-21T02:55:40.126Z,13.80
2019-05-21T02:58:10.466Z,13.70
2019-05-21T03:00:59.722Z,13.80
2019-05-21T03:03:31.208Z,13.70
2019-05-21T03:06:13.896Z,13.80
2019-05-21T03:08:34.433Z,13.80
2019-05-21T03:11:04.789Z,13.80
2019-05-21T03:13:35.162Z,13.90
2019-05-21T03:16:05.553Z,13.80
2019-05-21T03:18:35.885Z,13.60
2019-05-21T03:21:06.136Z,13.50
2019-05-21T03:23:36.474Z,13.50
2019-05-21T03:26:07.736Z,13.40
2019-05-21T03:28:38.280Z,13.20
2019-05-21T03:31:12.704Z,13.10
2019-05-21T03:33:45.605Z,13.00
2019-05-21T03:36:32.820Z,13.00
2019-05-21T03:38:52.158Z,13.00
2019-05-21T03:41:46.365Z,12.90
2019-05-21T03:44:21.895Z,12.80
2019-05-21T03:47:17.576Z,12.80
2019-05-21T03:49:48.167Z,12.80
2019-05-21T03:52:18.524Z,12.80
2019-05-21T03:54:48.828Z,12.90
2019-05-21T03:57:19.110Z,12.90
2019-05-21T03:59:49.380Z,12.90
2019-05-21T04:02:19.700Z,12.90
2019-05-21T04:04:49.986Z,12.90
2019-05-21T04:07:20.274Z,12.90
2019-05-21T04:09:50.629Z,12.90
2019-05-21T04:12:20.934Z,13.00
2019-05-21T04:14:56.406Z,13.00
2019-05-21T04:17:57.368Z,13.00
2019-05-21T04:20:28.503Z,13.00
2019-05-21T04:23:01.357Z,12.90
2019-05-21T04:25:32.495Z,12.90
2019-05-21T04:28:03.351Z,12.90
2019-05-21T04:30:33.655Z,12.90
2019-05-21T04:33:03.979Z,12.90
2019-05-21T04:35:34.253Z,12.90
2019-05-21T04:38:04.556Z,12.90
2019-05-21T04:40:34.841Z,12.80
2019-05-21T04:43:05.236Z,12.90
2019-05-21T04:45:35.493Z,12.90
2019-05-21T04:48:05.834Z,12.90
2019-05-21T04:50:37.297Z,12.90
2019-05-21T04:53:08.589Z,12.90
2019-05-21T04:55:38.894Z,12.80
2019-05-21T04:58:09.255Z,12.80
2019-05-21T05:00:39.562Z,12.90
2019-05-21T05:03:09.924Z,12.90
2019-05-21T05:05:40.185Z,12.90
2019-05-21T05:08:11.658Z,12.80
2019-05-21T05:10:41.954Z,12.80
2019-05-21T05:13:12.235Z,12.80
2019-05-21T05:15:42.544Z,12.80
2019-05-21T05:18:12.822Z,12.70
2019-05-21T05:20:43.135Z,12.80
2019-05-21T05:23:13.442Z,12.80
2019-05-21T05:25:43.743Z,12.80
2019-05-21T05:28:14.074Z,12.80
2019-05-21T05:30:44.396Z,12.80
2019-05-21T05:33:14.724Z,12.80
2019-05-21T05:35:45.014Z,12.70
2019-05-21T05:38:15.311Z,12.80
2019-05-21T05:40:45.606Z,12.80
2019-05-21T05:43:15.904Z,12.80
2019-05-21T05:45:46.333Z,12.80
2019-05-21T05:48:16.918Z,12.80
2019-05-21T05:50:48.825Z,12.90
2019-05-21T05:53:19.128Z,12.90
2019-05-21T05:55:49.452Z,12.80
2019-05-21T05:58:19.786Z,12.80
2019-05-21T06:00:50.105Z,12.80
2019-05-21T06:03:20.384Z,12.70
2019-05-21T06:05:50.709Z,12.90
2019-05-21T06:08:21.017Z,12.90
2019-05-21T06:10:51.378Z,12.90
2019-05-21T06:13:21.664Z,12.90
2019-05-21T06:15:52.001Z,12.90
2019-05-21T06:18:22.329Z,12.90
2019-05-21T06:20:52.691Z,12.90
2019-05-21T06:23:22.963Z,13.00
2019-05-21T06:25:53.413Z,12.90
2019-05-21T06:28:23.733Z,12.90
2019-05-21T06:30:54.594Z,13.00
2019-05-21T06:33:24.900Z,13.10
2019-05-21T06:35:55.451Z,13.00
2019-05-21T06:38:25.812Z,13.20
2019-05-21T06:40:56.285Z,13.30
2019-05-21T06:43:26.689Z,13.20
2019-05-21T06:45:56.994Z,13.20
2019-05-21T06:48:27.270Z,13.20
2019-05-21T06:50:58.007Z,13.20
2019-05-21T06:53:28.504Z,13.30
2019-05-21T06:56:00.016Z,13.20
2019-05-21T06:58:30.893Z,13.30
2019-05-21T07:01:01.266Z,13.30
2019-05-21T07:03:32.990Z,13.30
2019-05-21T07:06:03.494Z,13.30
2019-05-21T07:08:35.337Z,13.20
2019-05-21T07:11:06.255Z,13.30
2019-05-21T07:13:36.549Z,13.30
2019-05-21T07:16:06.861Z,13.30
2019-05-21T07:18:37.123Z,13.30
2019-05-21T07:21:07.491Z,13.30
2019-05-21T07:23:38.013Z,13.30
2019-05-21T07:26:08.641Z,13.40
2019-05-21T07:28:40.156Z,13.40
2019-05-21T07:31:11.461Z,13.40
2019-05-21T07:33:41.826Z,13.40
2019-05-21T07:36:12.214Z,13.50
2019-05-21T07:38:52.597Z,13.50
2019-05-21T07:41:15.132Z,13.60
2019-05-21T07:43:45.435Z,13.60
2019-05-21T07:46:15.744Z,13.70
2019-05-21T07:48:46.052Z,13.60
2019-05-21T07:51:16.324Z,13.60
2019-05-21T07:53:47.439Z,13.80
2019-05-21T07:56:17.761Z,13.80
2019-05-21T07:58:48.090Z,13.70
2019-05-21T08:01:18.387Z,13.70
2019-05-21T08:03:48.661Z,13.70
2019-05-21T08:06:18.930Z,13.60
2019-05-21T08:08:50.454Z,13.70
2019-05-21T08:11:21.475Z,13.70
2019-05-21T08:13:52.263Z,13.80
2019-05-21T08:16:23.162Z,13.70
2019-05-21T08:18:53.902Z,13.80
2019-05-21T08:21:24.512Z,13.80
2019-05-21T08:23:55.053Z,13.80
2019-05-21T08:26:26.026Z,13.80
2019-05-21T08:28:56.868Z,13.80
2019-05-21T08:31:27.526Z,13.90
2019-05-21T08:33:58.033Z,13.80
2019-05-21T08:36:28.515Z,13.70
2019-05-21T08:39:01.719Z,13.70
2019-05-21T08:41:33.704Z,13.70
2019-05-21T08:44:03.971Z,13.70
2019-05-21T08:46:34.308Z,13.70
2019-05-21T08:49:04.605Z,13.60
2019-05-21T08:51:34.910Z,13.50
2019-05-21T08:54:05.188Z,13.70
2019-05-21T08:56:35.587Z,13.70
2019-05-21T08:59:05.982Z,13.70
2019-05-21T09:01:36.299Z,13.60
2019-05-21T09:04:06.561Z,13.70
2019-05-21T09:06:36.855Z,13.50
2019-05-21T09:09:07.244Z,13.30
2019-05-21T09:11:37.517Z,13.30
2019-05-21T09:14:07.868Z,13.10
2019-05-21T09:16:38.128Z,13.10
2019-05-21T09:19:08.429Z,13.00
2019-05-21T09:21:38.785Z,13.00
2019-05-21T09:24:09.164Z,12.90
2019-05-21T09:26:39.439Z,12.90
2019-05-21T09:29:09.756Z,12.90
2019-05-21T09:31:40.044Z,12.90
2019-05-21T09:34:10.395Z,12.80
2019-05-21T09:36:40.666Z,12.80
2019-05-21T09:39:10.985Z,12.80
2019-05-21T09:41:41.262Z,12.80
2019-05-21T09:44:11.607Z,12.80
2019-05-21T09:46:41.928Z,12.70
2019-05-21T09:49:12.263Z,12.70
2019-05-21T09:51:42.525Z,12.70
2019-05-21T09:54:12.824Z,12.70
2019-05-21T09:56:43.098Z,12.70
2019-05-21T09:59:23.636Z,12.70
2019-05-21T10:01:56.221Z,12.70
2019-05-21T10:04:26.535Z,12.60
2019-05-21T10:06:56.808Z,12.70
2019-05-21T10:09:27.096Z,12.70
2019-05-21T10:11:57.354Z,12.80
2019-05-21T10:14:27.664Z,12.80
2019-05-21T10:16:58.076Z,12.80
2019-05-21T10:19:28.429Z,12.90
2019-05-21T10:21:58.748Z,12.90
2019-05-21T10:24:29.048Z,12.90
2019-05-21T10:27:02.860Z,12.90
2019-05-21T10:29:31.411Z,13.00
2019-05-21T10:32:02.442Z,13.00
2019-05-21T10:34:33.936Z,13.00
2019-05-21T10:37:05.541Z,13.00
2019-05-21T10:39:37.148Z,13.10
2019-05-21T10:42:09.099Z,13.00
2019-05-21T10:44:39.676Z,13.10
2019-05-21T10:47:10.062Z,13.10
2019-05-21T10:49:46.354Z,13.20
2019-05-21T10:52:18.634Z,13.30
2019-05-21T10:54:49.440Z,13.30
2019-05-21T10:57:22.811Z,13.30
2019-05-21T10:59:53.162Z,13.40
2019-05-21T11:02:48.608Z,13.30
2019-05-21T11:05:24.331Z,13.30
2019-05-21T11:07:56.577Z,13.40
2019-05-21T11:10:30.448Z,13.50
2019-05-21T11:13:01.239Z,13.50
2019-05-21T11:15:32.798Z,13.40
2019-05-21T11:18:11.828Z,13.50
2019-05-21T11:20:37.059Z,13.50
2019-05-21T11:23:08.077Z,13.50
2019-05-21T11:25:38.651Z,13.60
2019-05-21T11:28:09.491Z,13.70
2019-05-21T11:30:39.908Z,13.60
2019-05-21T11:33:10.542Z,13.50
2019-05-21T11:35:41.329Z,13.50
2019-05-21T11:38:11.626Z,13.60
2019-05-21T11:40:43.065Z,13.50
2019-05-21T11:43:14.065Z,13.50
2019-05-21T11:45:44.424Z,13.50
2019-05-21T11:48:14.779Z,13.40
2019-05-21T11:50:45.285Z,13.30
2019-05-21T11:53:15.622Z,13.30
2019-05-21T11:55:47.349Z,13.30
2019-05-21T11:58:17.811Z,13.20
2019-05-21T12:00:49.090Z,13.20
2019-05-21T12:03:19.512Z,13.10
2019-05-21T12:05:50.095Z,13.10
2019-05-21T12:08:20.796Z,13.20
2019-05-21T12:10:50.980Z,13.10
2019-05-21T12:13:22.327Z,13.20
2019-05-21T12:15:52.668Z,13.20
2019-05-21T12:18:23.316Z,13.20
2019-05-21T12:20:55.454Z,13.30
2019-05-21T12:23:26.458Z,13.40
2019-05-21T12:25:57.282Z,13.30
2019-05-21T12:28:27.900Z,13.40
2019-05-21T12:31:00.385Z,13.50
2019-05-21T12:33:35.124Z,13.40
2019-05-21T12:36:06.284Z,13.60
2019-05-21T12:38:36.670Z,13.60
2019-05-21T12:41:13.386Z,13.60
2019-05-21T12:43:41.807Z,13.70
2019-05-21T12:46:18.146Z,13.60
2019-05-21T12:48:49.336Z,13.70
2019-05-21T12:51:19.731Z,13.80
2019-05-21T12:54:14.226Z,13.60
2019-05-21T12:56:44.901Z,13.60
2019-05-21T12:59:15.205Z,13.50
2019-05-21T13:01:45.536Z,13.50
2019-05-21T13:04:15.873Z,13.60
2019-05-21T13:06:47.321Z,13.60
2019-05-21T13:09:31.528Z,13.70
2019-05-21T13:11:55.329Z,13.80
2019-05-21T13:14:25.739Z,13.80
2019-05-21T13:16:57.402Z,13.90
2019-05-21T13:19:30.803Z,14.00
2019-05-21T13:22:01.112Z,14.00
2019-05-21T13:24:31.517Z,14.00
2019-05-21T13:27:01.829Z,13.90
2019-05-21T13:29:33.311Z,14.00
2019-05-21T13:32:04.665Z,13.80
2019-05-21T13:34:34.999Z,13.70
2019-05-21T13:37:05.431Z,13.70
2019-05-21T13:39:49.914Z,13.60
2019-05-21T13:42:16.273Z,13.70
2019-05-21T13:44:46.745Z,13.80
2019-05-21T13:47:17.777Z,13.90
2019-05-21T13:49:48.255Z,13.80
2019-05-21T13:52:18.970Z,13.80
2019-05-21T13:54:50.229Z,14.00
2019-05-21T13:57:21.175Z,14.20
2019-05-21T13:59:51.798Z,14.10
2019-05-21T14:02:22.321Z,14.30
2019-05-21T14:04:53.020Z,14.20
2019-05-21T14:07:23.344Z,14.00
2019-05-21T14:10:13.447Z,14.10
2019-05-21T14:12:25.864Z,14.00
2019-05-21T14:15:00.448Z,14.00
2019-05-21T14:17:31.573Z,14.00
2019-05-21T14:20:02.211Z,13.90
2019-05-21T14:22:36.394Z,13.90
2019-05-21T14:25:05.128Z,13.80
2019-05-21T14:27:44.478Z,13.90
2019-05-21T14:30:08.067Z,14.10
2019-05-21T14:32:38.786Z,13.80
2019-05-21T14:35:09.159Z,13.80
2019-05-21T14:37:39.685Z,13.80
2019-05-21T14:40:10.861Z,13.90
2019-05-21T14:42:58.081Z,13.80
2019-05-21T14:45:16.784Z,13.70
2019-05-21T14:47:47.064Z,13.80
2019-05-21T14:50:17.889Z,13.70
2019-05-21T14:52:52.635Z,13.60
2019-05-21T14:55:22.908Z,13.70
2019-05-21T14:57:53.262Z,13.70
2019-05-21T15:00:28.888Z,13.80
2019-05-21T15:02:59.335Z,13.60
2019-05-21T15:05:29.598Z,13.70
2019-05-21T15:07:59.986Z,13.70
2019-05-21T15:10:46.872Z,13.70
2019-05-21T15:13:05.771Z,13.60
2019-05-21T15:15:35.524Z,13.50
2019-05-21T15:18:06.298Z,13.60
2019-05-21T15:20:57.419Z,13.50
2019-05-21T15:23:27.899Z,13.50
2019-05-21T15:25:58.226Z,13.30
2019-05-21T15:28:28.522Z,13.40
2019-05-21T15:30:58.981Z,13.40
2019-05-21T15:33:29.485Z,13.50
2019-05-21T15:35:59.837Z,13.30
2019-05-21T15:38:48.437Z,13.40
2019-05-21T15:41:11.935Z,13.40
2019-05-21T15:43:36.720Z,13.40
2019-05-21T15:46:07.228Z,13.60
2019-05-21T15:48:37.797Z,13.60
2019-05-21T15:51:08.436Z,13.70
2019-05-21T15:53:38.914Z,13.60
2019-05-21T15:56:09.237Z,13.60
2019-05-21T15:58:39.599Z,13.60
2019-05-21T16:01:10.482Z,13.70
2019-05-21T16:03:41.571Z,13.70
2019-05-21T16:06:13.651Z,13.70
2019-05-21T16:08:44.259Z,13.60
2019-05-21T16:11:27.934Z,13.70
2019-05-21T16:13:47.213Z,13.70
2019-05-21T16:16:19.986Z,13.80
2019-05-21T16:18:51.294Z,13.80
2019-05-21T16:21:22.301Z,13.70
2019-05-21T16:23:52.747Z,13.70
2019-05-21T16:26:23.607Z,13.70
2019-05-21T16:28:54.124Z,13.70
2019-05-21T16:31:24.826Z,13.60
2019-05-21T16:33:55.279Z,13.70
2019-05-21T16:36:26.001Z,13.60
2019-05-21T16:38:56.553Z,13.60
2019-05-21T16:41:27.140Z,13.80
2019-05-21T16:43:57.443Z,13.70
2019-05-21T16:46:27.776Z,13.70
2019-05-21T16:48:58.112Z,13.70
2019-05-21T16:51:28.490Z,13.50
2019-05-21T16:53:58.811Z,13.60
2019-05-21T16:56:29.159Z,13.50
2019-05-21T16:58:59.789Z,13.50
2019-05-21T17:01:30.672Z,13.50
2019-05-21T17:04:01.763Z,13.50
2019-05-21T17:06:32.263Z,13.50
2019-05-21T17:09:02.665Z,13.50
2019-05-21T17:11:33.457Z,13.60
2019-05-21T17:14:03.883Z,13.60
2019-05-21T17:16:34.269Z,13.70
2019-05-21T17:19:04.599Z,13.50
2019-05-21T17:21:38.018Z,13.50
2019-05-21T17:24:09.094Z,13.50
2019-05-21T17:26:43.003Z,13.50
2019-05-21T17:29:13.578Z,13.50
2019-05-21T17:31:45.041Z,13.60
2019-05-21T17:34:15.912Z,13.50
2019-05-21T17:36:46.462Z,13.60
2019-05-21T17:39:16.860Z,13.60
2019-05-21T17:41:47.294Z,13.70
2019-05-21T17:44:28.196Z,13.60
2019-05-21T17:47:08.389Z,13.60
2019-05-21T17:49:39.002Z,13.60
2019-05-21T17:52:09.319Z,13.70
2019-05-21T17:54:55.633Z,13.70
2019-05-21T17:57:12.207Z,13.70
2019-05-21T17:59:42.585Z,13.70
2019-05-21T18:02:15.747Z,13.80
2019-05-21T18:04:47.776Z,13.70
2019-05-21T18:07:18.948Z,13.80
2019-05-21T18:09:49.818Z,13.70
2019-05-21T18:12:31.563Z,13.70
2019-05-21T18:14:54.064Z,13.70
2019-05-21T18:17:25.268Z,13.70
2019-05-21T18:19:56.099Z,13.80
2019-05-21T18:22:34.300Z,13.80
2019-05-21T18:25:06.114Z,13.90
2019-05-21T18:27:38.716Z,13.90
2019-05-21T18:30:10.824Z,13.90
2019-05-21T18:32:41.520Z,13.80
2019-05-21T18:35:12.473Z,13.70
2019-05-21T18:37:43.687Z,13.70
2019-05-21T18:40:14.964Z,13.80
2019-05-21T18:42:45.370Z,13.70
2019-05-21T18:45:16.150Z,13.70
2019-05-21T18:47:46.684Z,13.70
2019-05-21T18:50:17.879Z,13.80
2019-05-21T18:52:49.779Z,13.90
2019-05-21T18:55:21.442Z,13.90
2019-05-21T18:57:52.001Z,14.00
2019-05-21T19:00:22.700Z,14.00
2019-05-21T19:03:12.333Z,13.90
2019-05-21T19:05:43.702Z,13.90
2019-05-21T19:08:14.638Z,13.90
2019-05-21T19:10:45.438Z,14.00
2019-05-21T19:13:15.833Z,14.00
2019-05-21T19:15:46.107Z,13.90
2019-05-21T19:18:16.627Z,13.80
2019-05-21T19:20:49.945Z,14.00
2019-05-21T19:23:20.474Z,14.00
2019-05-21T19:25:50.948Z,14.00
2019-05-21T19:28:21.377Z,14.00
2019-05-21T19:30:51.768Z,14.00
2019-05-21T19:33:22.289Z,14.00
2019-05-21T19:35:52.653Z,14.00
2019-05-21T19:38:23.121Z,14.00
2019-05-21T19:40:53.543Z,14.10
2019-05-21T19:43:24.110Z,14.20
2019-05-21T19:45:55.728Z,14.10
2019-05-21T19:48:27.032Z,14.10
2019-05-21T19:51:08.713Z,14.10
2019-05-21T19:53:40.883Z,14.00
2019-05-21T19:56:11.752Z,14.10
2019-05-21T19:58:42.725Z,14.10
2019-05-21T20:01:13.682Z,14.20
2019-05-21T20:03:45.072Z,14.10
2019-05-21T20:06:17.059Z,14.10
2019-05-21T20:08:48.325Z,14.10
2019-05-21T20:11:19.952Z,14.00
2019-05-21T20:13:50.623Z,14.10
2019-05-21T20:16:23.576Z,14.10
2019-05-21T20:18:54.897Z,14.10
2019-05-21T20:21:25.328Z,14.10
2019-05-21T20:23:59.381Z,14.10
2019-05-21T20:26:33.342Z,14.10
2019-05-21T20:29:19.243Z,14.20
2019-05-21T20:31:52.797Z,14.20
2019-05-21T20:34:23.826Z,14.00
2019-05-21T20:36:59.486Z,14.10
2019-05-21T20:39:33.082Z,14.10
2019-05-21T20:42:05.890Z,14.00
2019-05-21T20:44:38.783Z,14.10
2019-05-21T20:47:16.721Z,14.00
2019-05-21T20:49:52.430Z,13.80
2019-05-21T20:52:25.820Z,13.90
2019-05-21T20:54:57.232Z,13.90
2019-05-21T20:57:29.319Z,13.90
2019-05-21T21:00:01.775Z,14.00
2019-05-21T21:02:33.961Z,14.10
2019-05-21T21:05:05.811Z,14.00
2019-05-21T21:07:39.191Z,14.10
2019-05-21T21:10:12.304Z,14.00
2019-05-21T21:12:44.645Z,14.00
2019-05-21T21:15:18.576Z,13.90
2019-05-21T21:17:52.742Z,13.80
2019-05-21T21:20:23.427Z,13.90
2019-05-21T21:22:54.149Z,14.00
2019-05-21T21:25:24.959Z,13.90
2019-05-21T21:27:55.719Z,14.00
2019-05-21T21:30:26.590Z,14.00
2019-05-21T21:32:57.980Z,13.90
2019-05-21T21:35:28.552Z,13.80
2019-05-21T21:38:01.362Z,13.80
2019-05-21T21:40:32.603Z,13.90
2019-05-21T21:43:03.230Z,13.90
2019-05-21T21:45:34.212Z,13.80
2019-05-21T21:48:05.069Z,13.90
2019-05-21T21:50:37.235Z,14.00
2019-05-21T21:53:08.263Z,14.00
2019-05-21T21:55:40.521Z,13.90
2019-05-21T21:58:12.275Z,14.00
2019-05-21T22:01:20.139Z,14.00
2019-05-21T22:03:51.102Z,14.10
2019-05-21T22:06:23.874Z,14.10
2019-05-21T22:08:54.698Z,14.10
2019-05-21T22:11:25.154Z,14.20
2019-05-21T22:13:56.259Z,14.00
2019-05-21T22:16:26.576Z,14.10
2019-05-21T22:18:57.188Z,14.10
2019-05-21T22:21:27.990Z,14.00
2019-05-21T22:23:58.502Z,14.00
2019-05-21T22:26:30.075Z,14.00
2019-05-21T22:29:00.481Z,14.10
2019-05-21T22:31:30.847Z,14.00
2019-05-21T22:34:01.352Z,14.00
2019-05-21T22:36:31.637Z,14.10
2019-05-21T22:39:01.950Z,14.20
2019-05-21T22:41:33.652Z,14.00
2019-05-21T22:44:04.206Z,13.90
2019-05-21T22:46:34.496Z,14.00
2019-05-21T22:49:04.828Z,14.00
2019-05-21T22:51:35.234Z,14.10
2019-05-21T22:54:05.649Z,13.90
2019-05-21T22:56:36.051Z,14.00
2019-05-21T22:59:06.465Z,14.10
2019-05-21T23:01:37.580Z,13.90
2019-05-21T23:04:08.101Z,13.90
2019-05-21T23:06:38.416Z,13.90
2019-05-21T23:09:20.856Z,13.80
2019-05-21T23:11:51.266Z,13.80
2019-05-21T23:14:21.590Z,13.80
2019-05-21T23:16:52.677Z,13.80
2019-05-21T23:19:31.608Z,13.80
2019-05-21T23:22:16.284Z,13.90
2019-05-21T23:24:48.174Z,13.80
2019-05-21T23:27:19.513Z,13.80
2019-05-21T23:29:50.058Z,13.90
2019-05-21T23:32:20.730Z,13.90
2019-05-21T23:34:53.514Z,13.80
2019-05-21T23:37:24.151Z,13.80
2019-05-21T23:39:55.701Z,13.80
2019-05-21T23:42:29.806Z,13.80
2019-05-21T23:44:59.048Z,13.80
2019-05-21T23:47:30.494Z,13.80
2019-05-21T23:50:00.772Z,13.70
2019-05-21T23:52:31.105Z,13.80
2019-05-21T23:55:01.865Z,13.70
2019-05-21T23:57:33.320Z,13.80
